Time;durP1;ratioP1;P1;durP2;ratioP2;P2;SDS_P1;SDS_P2;PMS_P1;PMS_P2;Temp;Humidity;BMP_temperature;BMP_pressure;BME280_temperature;BME280_humidity;BME280_pressure;Samples;Min_cycle;Max_cycle;Signal;HPM_P1;HPM_P2
2022/01/03 00:00:36;;;;;;;10.10;1.80;;;8.90;99.90;;;;;;4808004;29;20133;-81
2022/01/03 00:03:03;;;;;;;6.68;1.40;;;8.90;99.90;;;;;;4808094;29;20073;-80
2022/01/03 00:05:29;;;;;;;9.38;1.90;;;8.90;99.90;;;;;;4807813;29;20115;-81
2022/01/03 00:07:55;;;;;;;15.55;1.65;;;9.00;99.90;;;;;;4807404;29;20446;-80
2022/01/03 00:10:21;;;;;;;11.95;2.22;;;9.00;99.90;;;;;;4806652;29;20474;-81
2022/01/03 00:12:47;;;;;;;6.57;1.33;;;9.10;99.90;;;;;;4806252;29;20494;-81
2022/01/03 00:15:13;;;;;;;10.27;1.83;;;9.10;99.90;;;;;;4806499;29;20486;-80
2022/01/03 00:17:39;;;;;;;11.27;2.17;;;9.10;99.90;;;;;;4805896;29;20111;-81
2022/01/03 00:20:06;;;;;;;8.07;1.67;;;9.20;99.90;;;;;;4807578;29;20046;-81
2022/01/03 00:22:57;;;;;;;16.40;2.17;;;9.20;99.90;;;;;;4807618;29;20054;-80
2022/01/03 00:25:23;;;;;;;;;;;9.30;99.90;;;;;;4806272;29;20066;-80
2022/01/03 00:27:57;;;;;;;13.35;2.10;;;9.20;99.90;;;;;;4807170;29;20316;-81
2022/01/03 00:30:23;;;;;;;13.38;2.20;;;9.20;99.90;;;;;;4806558;29;20483;-80
2022/01/03 00:32:51;;;;;;;15.25;2.22;;;9.30;99.90;;;;;;4790905;29;20066;-80
2022/01/03 00:35:17;;;;;;;16.98;2.25;;;9.20;99.90;;;;;;4806211;29;20129;-81
2022/01/03 00:37:45;;;;;;;20.70;3.20;;;9.20;99.90;;;;;;4805628;29;20549;-81
2022/01/03 00:40:14;;;;;;;17.15;2.92;;;9.20;99.90;;;;;;4806196;29;20510;-81
2022/01/03 00:42:40;;;;;;;13.40;2.10;;;9.20;99.90;;;;;;4791163;29;20112;-81
2022/01/03 00:45:06;;;;;;;18.08;3.35;;;9.20;99.90;;;;;;4807293;29;20447;-81
2022/01/03 00:47:33;;;;;;;15.32;2.65;;;9.20;99.90;;;;;;4807266;29;20094;-80
2022/01/03 00:50:20;;;;;;;21.60;2.83;;;9.20;99.90;;;;;;4806738;29;20047;-80
2022/01/03 00:52:46;;;;;;;15.55;2.47;;;9.20;99.90;;;;;;4806680;29;20054;-80
2022/01/03 00:55:12;;;;;;;16.10;2.58;;;9.10;99.90;;;;;;4807042;29;20122;-80
2022/01/03 00:58:09;;;;;;;19.50;3.38;;;9.10;99.90;;;;;;4806907;29;20050;-80
2022/01/03 01:00:36;;;;;;;16.58;3.00;;;9.10;99.90;;;;;;4807157;29;20141;-80
2022/01/03 01:03:05;;;;;;;14.57;2.85;;;9.00;99.90;;;;;;4805385;29;20086;-80
2022/01/03 01:05:31;;;;;;;18.88;3.08;;;9.00;99.90;;;;;;4806773;29;20130;-80
2022/01/03 01:07:57;;;;;;;19.00;3.30;;;9.00;99.90;;;;;;4806412;29;20115;-80
2022/01/03 01:10:30;;;;;;;18.73;2.80;;;9.00;99.90;;;;;;4805679;29;20047;-80
2022/01/03 01:12:56;;;;;;;18.48;3.00;;;8.90;99.90;;;;;;4806409;29;20147;-80
2022/01/03 01:15:22;;;;;;;17.73;2.60;;;8.90;99.90;;;;;;4805393;29;20141;-80
2022/01/03 01:17:48;;;;;;;19.63;3.20;;;8.90;99.90;;;;;;4806117;29;20051;-80
2022/01/03 01:20:15;;;;;;;24.85;3.35;;;8.90;99.90;;;;;;4806506;29;20054;-80
2022/01/03 01:22:44;;;;;;;21.80;3.75;;;8.90;99.90;;;;;;4806661;29;20061;-80
2022/01/03 01:27:48;;;;;;;22.55;3.10;;;8.90;99.90;;;;;;4790978;29;20059;-80
2022/01/03 01:30:18;;;;;;;21.48;3.33;;;8.90;99.90;;;;;;4805417;29;20119;-80
2022/01/03 01:32:48;;;;;;;28.00;3.85;;;8.90;99.90;;;;;;4806336;29;20134;-80
2022/01/03 01:35:14;;;;;;;19.08;3.17;;;9.00;99.90;;;;;;4790465;29;20078;-80
2022/01/03 01:37:40;;;;;;;23.90;3.75;;;9.00;99.90;;;;;;4805148;29;20047;-79
2022/01/03 01:40:06;;;;;;;21.55;3.53;;;9.10;99.90;;;;;;4804384;29;20517;-80
2022/01/03 01:42:32;;;;;;;28.65;3.63;;;9.20;99.90;;;;;;4806259;29;20054;-80
2022/01/03 01:44:58;;;;;;;19.38;3.13;;;9.20;99.90;;;;;;4804795;29;20059;-80
2022/01/03 01:47:24;;;;;;;26.50;3.58;;;9.20;99.90;;;;;;4804710;29;20532;-80
2022/01/03 01:49:50;;;;;;;23.00;3.85;;;9.20;99.90;;;;;;4789823;29;20058;-80
2022/01/03 01:52:18;;;;;;;21.48;3.33;;;9.20;99.90;;;;;;4775169;29;20134;-80
2022/01/03 01:54:56;;;;;;;23.40;3.40;;;9.30;99.90;;;;;;4804959;29;20059;-80
2022/01/03 01:57:24;;;;;;;18.83;2.92;;;9.40;99.90;;;;;;4806065;29;20099;-80
2022/01/03 02:00:11;;;;;;;22.83;3.70;;;9.40;99.90;;;;;;4804843;29;20047;-80
2022/01/03 02:02:53;;;;;;;23.10;3.42;;;9.40;99.90;;;;;;4804544;29;20051;-80
2022/01/03 02:05:33;;;;;;;19.35;3.63;;;9.40;99.90;;;;;;4791616;29;20116;-80
2022/01/03 02:08:08;;;;;;;24.00;3.75;;;9.40;99.90;;;;;;4805346;29;20051;-80
2022/01/03 02:10:41;;;;;;;15.80;3.15;;;9.40;99.90;;;;;;4804627;29;20143;-80
2022/01/03 02:13:07;;;;;;;16.77;3.13;;;9.40;99.90;;;;;;4805313;29;20138;-80
2022/01/03 02:15:34;;;;;;;23.40;3.38;;;9.30;99.90;;;;;;4804661;29;20086;-80
2022/01/03 02:17:59;;;;;;;23.75;3.83;;;9.20;99.90;;;;;;4804019;29;20058;-80
2022/01/03 02:20:26;;;;;;;21.35;2.97;;;9.20;99.90;;;;;;4805517;29;20409;-80
2022/01/03 02:22:52;;;;;;;22.00;3.63;;;9.20;99.90;;;;;;4804406;29;20061;-80
2022/01/03 02:25:19;;;;;;;30.00;4.35;;;9.20;99.90;;;;;;4804129;29;20050;-80
2022/01/03 02:27:46;;;;;;;20.75;3.30;;;9.20;99.90;;;;;;4805589;29;20569;-80
2022/01/03 02:30:14;;;;;;;19.65;3.00;;;9.20;99.90;;;;;;4789214;29;20094;-80
2022/01/03 02:32:39;;;;;;;23.38;3.97;;;9.20;99.90;;;;;;4789646;29;20096;-80
2022/01/03 02:35:06;;;;;;;17.02;3.35;;;9.30;99.90;;;;;;4803877;29;20440;-80
2022/01/03 02:37:31;;;;;;;24.13;4.40;;;9.20;99.90;;;;;;4805419;29;20053;-80
2022/01/03 02:39:57;;;;;;;30.55;3.90;;;9.20;99.90;;;;;;4805166;29;20050;-80
2022/01/03 02:42:23;;;;;;;23.17;3.00;;;9.30;99.90;;;;;;4805407;29;20042;-80
2022/01/03 02:45:04;;;;;;;18.10;2.92;;;9.20;99.90;;;;;;4805396;29;20050;-80
2022/01/03 02:47:30;;;;;;;25.40;3.53;;;9.20;99.90;;;;;;4806630;29;20051;-80
2022/01/03 02:49:55;;;;;;;22.48;3.90;;;9.20;99.90;;;;;;4809424;29;20051;-80
2022/01/03 02:52:21;;;;;;;23.00;3.28;;;9.20;99.90;;;;;;4808754;29;20102;-80
2022/01/03 02:54:49;;;;;;;23.90;3.92;;;9.20;99.90;;;;;;4808710;29;20103;-80
2022/01/03 02:57:15;;;;;;;19.73;3.17;;;9.30;99.90;;;;;;4807417;29;20059;-80
2022/01/03 02:59:41;;;;;;;23.30;3.28;;;9.20;99.90;;;;;;4808711;29;20114;-80
2022/01/03 03:02:06;;;;;;;23.65;3.70;;;9.20;99.90;;;;;;4807399;29;20089;-80
2022/01/03 03:04:32;;;;;;;26.25;3.67;;;9.20;99.90;;;;;;4809019;29;20138;-80
2022/01/03 03:06:58;;;;;;;22.88;4.00;;;9.20;99.90;;;;;;4808921;29;20406;-80
2022/01/03 03:09:23;;;;;;;24.45;3.47;;;9.20;99.90;;;;;;4808430;29;20069;-80
2022/01/03 03:11:49;;;;;;;24.27;3.85;;;9.20;99.90;;;;;;4808901;29;20405;-80
2022/01/03 03:14:15;;;;;;;16.88;3.58;;;9.10;99.90;;;;;;4808279;29;20058;-80
2022/01/03 03:16:41;;;;;;;27.52;4.00;;;9.10;99.90;;;;;;4808658;29;20046;-80
2022/01/03 03:19:09;;;;;;;23.17;3.55;;;9.00;99.90;;;;;;4808201;29;20092;-80
2022/01/03 03:21:34;;;;;;;25.63;3.70;;;9.00;99.90;;;;;;4792390;29;20063;-80
2022/01/03 03:24:00;;;;;;;23.25;3.78;;;9.00;99.90;;;;;;4808665;29;20112;-79
2022/01/03 03:26:26;;;;;;;23.92;3.70;;;8.90;99.90;;;;;;4807313;29;20137;-80
2022/01/03 03:28:51;;;;;;;27.13;4.25;;;8.90;99.90;;;;;;4808279;29;20050;-80
2022/01/03 03:31:17;;;;;;;19.65;3.40;;;8.80;99.90;;;;;;4808004;29;20054;-80
2022/01/03 03:33:42;;;;;;;27.75;4.30;;;8.80;99.90;;;;;;4807370;29;20084;-79
2022/01/03 03:36:08;;;;;;;24.63;4.40;;;8.80;99.90;;;;;;4807981;29;20058;-80
2022/01/03 03:38:34;;;;;;;23.20;3.63;;;8.70;99.90;;;;;;4808434;29;20050;-80
2022/01/03 03:41:00;;;;;;;25.48;4.07;;;8.80;99.90;;;;;;4807411;29;20453;-80
2022/01/03 03:43:25;;;;;;;19.42;3.80;;;8.70;99.90;;;;;;4806682;29;20772;-80
2022/01/03 03:45:51;;;;;;;28.38;4.72;;;8.80;99.90;;;;;;4808009;29;20050;-79
2022/01/03 03:48:17;;;;;;;21.85;3.85;;;8.80;99.90;;;;;;4806802;29;20092;-79
2022/01/03 03:50:43;;;;;;;22.48;3.53;;;8.80;99.90;;;;;;4806866;29;20084;-80
2022/01/03 03:53:08;;;;;;;22.65;4.28;;;8.80;99.90;;;;;;4807720;29;20054;-80
2022/01/03 03:55:34;;;;;;;24.67;3.92;;;8.80;99.90;;;;;;4808182;29;20051;-80
2022/01/03 03:58:00;;;;;;;25.17;4.05;;;8.80;99.90;;;;;;4806762;29;20047;-80
2022/01/03 04:00:26;;;;;;;25.77;4.13;;;8.90;99.90;;;;;;4805369;29;20070;-80
2022/01/03 04:02:52;;;;;;;24.70;4.38;;;8.90;99.90;;;;;;4808068;29;20627;-80
2022/01/03 04:05:17;;;;;;;26.38;3.97;;;9.00;99.90;;;;;;4807451;29;20500;-80
2022/01/03 04:07:43;;;;;;;25.25;4.00;;;9.00;99.90;;;;;;4807587;29;20046;-80
2022/01/03 04:10:10;;;;;;;26.75;3.80;;;9.00;99.90;;;;;;4807856;29;20146;-79
2022/01/03 04:12:35;;;;;;;23.65;3.63;;;9.00;99.90;;;;;;4791779;29;20062;-80
2022/01/03 04:15:02;;;;;;;23.85;3.60;;;9.00;99.90;;;;;;4807772;29;20047;-80
2022/01/03 04:17:27;;;;;;;24.83;3.58;;;9.00;99.90;;;;;;4805984;29;20054;-80
2022/01/03 04:19:53;;;;;;;27.25;4.65;;;9.00;99.90;;;;;;4807650;29;20054;-80
2022/01/03 04:22:19;;;;;;;28.20;4.35;;;9.00;99.90;;;;;;4807175;29;20563;-80
2022/01/03 04:24:44;;;;;;;23.35;4.13;;;9.00;99.90;;;;;;4807593;29;20375;-80
2022/01/03 04:27:10;;;;;;;21.08;4.18;;;9.00;99.90;;;;;;4807470;29;20055;-80
2022/01/03 04:29:36;;;;;;;28.23;3.70;;;9.00;99.90;;;;;;4807290;29;20047;-80
2022/01/03 04:32:01;;;;;;;26.63;4.80;;;9.00;99.90;;;;;;4807415;29;20050;-80
2022/01/03 04:34:27;;;;;;;30.83;4.57;;;8.90;99.90;;;;;;4807016;29;20137;-80
2022/01/03 04:36:53;;;;;;;26.02;4.10;;;8.90;99.90;;;;;;4807414;29;20142;-80
2022/01/03 04:39:18;;;;;;;27.83;5.13;;;8.90;99.90;;;;;;4806879;29;20086;-80
2022/01/03 04:41:44;;;;;;;23.65;4.07;;;8.90;99.90;;;;;;4807215;29;20057;-79
2022/01/03 04:44:09;;;;;;;29.58;4.70;;;8.90;99.90;;;;;;4806963;29;20057;-79
2022/01/03 04:46:36;;;;;;;29.88;4.57;;;8.90;99.90;;;;;;4806554;29;20063;-80
2022/01/03 04:49:02;;;;;;;28.92;3.75;;;8.90;99.90;;;;;;4806086;29;20447;-80
2022/01/03 04:51:28;;;;;;;30.63;4.60;;;8.90;99.90;;;;;;4790626;29;20054;-80
2022/01/03 04:53:54;;;;;;;26.42;3.90;;;8.90;99.90;;;;;;4807040;29;20582;-80
2022/01/03 04:56:19;;;;;;;27.00;4.03;;;9.00;99.90;;;;;;4806630;29;20054;-80
2022/01/03 04:58:45;;;;;;;31.05;5.00;;;8.90;99.90;;;;;;4805729;29;20397;-80
2022/01/03 05:01:11;;;;;;;30.65;4.25;;;8.90;99.90;;;;;;4806831;29;20058;-80
2022/01/03 05:03:36;;;;;;;33.53;4.65;;;8.80;99.90;;;;;;4806472;29;20055;-80
2022/01/03 05:06:02;;;;;;;24.02;3.88;;;8.80;99.90;;;;;;4806873;29;20047;-80
2022/01/03 05:08:31;;;;;;;22.92;3.83;;;8.70;99.90;;;;;;4790536;29;20055;-80
2022/01/03 05:11:00;;;;;;;30.13;5.35;;;8.70;99.90;;;;;;4790474;29;20402;-80
2022/01/03 05:13:27;;;;;;;27.77;4.32;;;8.80;99.90;;;;;;4806220;29;20058;-80
2022/01/03 05:15:52;;;;;;;35.40;4.95;;;8.70;99.90;;;;;;4806653;29;20051;-80
2022/01/03 05:18:18;;;;;;;31.92;4.60;;;8.90;99.90;;;;;;4806528;29;20051;-80
2022/01/03 05:20:44;;;;;;;27.83;4.80;;;8.90;99.90;;;;;;4806438;29;20050;-80
2022/01/03 05:23:10;;;;;;;24.98;5.35;;;8.80;99.90;;;;;;4806731;29;20474;-80
2022/01/03 05:25:35;;;;;;;30.95;5.22;;;8.80;99.90;;;;;;4804861;29;20072;-80
2022/01/03 05:28:01;;;;;;;31.38;4.95;;;8.80;99.90;;;;;;4806572;29;20050;-80
2022/01/03 05:30:26;;;;;;;34.88;5.28;;;8.70;99.90;;;;;;4804847;29;20058;-79
2022/01/03 05:32:52;;;;;;;28.88;5.38;;;8.70;99.90;;;;;;4805349;29;20046;-79
2022/01/03 05:35:18;;;;;;;34.00;5.35;;;8.70;99.90;;;;;;4790599;29;20063;-79
2022/01/03 05:37:44;;;;;;;27.10;4.45;;;8.60;99.90;;;;;;4804663;29;20051;-80
2022/01/03 05:40:10;;;;;;;28.63;4.95;;;8.60;99.90;;;;;;4805889;29;20097;-79
2022/01/03 05:42:35;;;;;;;32.42;4.88;;;8.60;99.90;;;;;;4804515;29;20055;-84
2022/01/03 05:45:04;;;;;;;30.77;5.20;;;8.60;99.90;;;;;;4805543;29;20058;-85
2022/01/03 05:47:30;;;;;;;35.58;5.40;;;8.60;99.90;;;;;;4805682;29;20062;-84
2022/01/03 05:49:56;;;;;;;37.80;5.70;;;8.60;99.90;;;;;;4806301;29;20070;-84
2022/01/03 05:52:22;;;;;;;33.72;6.15;;;8.60;99.90;;;;;;4805764;29;20506;-86
2022/01/03 05:54:48;;;;;;;27.67;5.07;;;8.50;99.90;;;;;;4804441;29;20053;-81
2022/01/03 05:57:14;;;;;;;33.83;4.97;;;8.50;99.90;;;;;;4805889;29;20055;-81
2022/01/03 05:59:39;;;;;;;36.70;5.00;;;8.50;99.90;;;;;;4804544;29;20183;-80
2022/01/03 06:02:05;;;;;;;27.80;4.90;;;8.50;99.90;;;;;;4805502;29;20050;-82
2022/01/03 06:07:25;;;;;;;33.63;4.60;;;8.40;99.90;;;;;;4805172;29;20051;-81
2022/01/03 06:09:51;;;;;;;33.45;5.82;;;8.40;99.90;;;;;;4805825;29;20137;-81
2022/01/03 06:12:17;;;;;;;33.35;4.57;;;8.40;99.90;;;;;;4805534;29;20082;-81
2022/01/03 06:14:44;;;;;;;34.72;5.85;;;8.40;99.90;;;;;;4804222;29;20054;-81
2022/01/03 06:17:10;;;;;;;35.30;6.05;;;8.40;99.90;;;;;;4805750;29;20058;-81
2022/01/03 06:19:35;;;;;;;29.05;5.03;;;8.50;99.90;;;;;;4805152;29;20421;-82
2022/01/03 06:22:05;;;;;;;28.73;4.72;;;8.50;99.90;;;;;;4804157;29;20123;-80
2022/01/03 06:24:30;;;;;;;29.75;4.75;;;8.40;99.90;;;;;;4804195;29;20049;-82
2022/01/03 06:26:56;;;;;;;36.55;5.57;;;8.40;99.90;;;;;;4805748;29;20050;-81
2022/01/03 06:29:22;;;;;;;37.33;5.65;;;8.40;99.90;;;;;;4805692;29;20482;-81
2022/01/03 06:31:47;;;;;;;32.60;5.35;;;8.40;99.90;;;;;;4804869;29;20168;-81
2022/01/03 06:34:14;;;;;;;31.55;4.68;;;8.30;99.90;;;;;;4804418;29;20050;-81
2022/01/03 06:36:40;;;;;;;29.58;4.50;;;8.40;99.90;;;;;;4805194;29;20078;-81
2022/01/03 06:39:07;;;;;;;36.60;5.38;;;8.50;99.90;;;;;;4805481;29;20097;-81
2022/01/03 06:41:33;;;;;;;32.25;4.97;;;8.40;99.90;;;;;;4789222;29;20085;-82
2022/01/03 06:43:58;;;;;;;38.30;5.55;;;8.50;99.90;;;;;;4805503;29;20111;-81
2022/01/03 06:46:24;;;;;;;32.20;5.40;;;8.50;99.90;;;;;;4805158;29;20075;-81
2022/01/03 06:48:50;;;;;;;37.40;5.10;;;8.50;99.90;;;;;;4805150;29;20379;-82
2022/01/03 06:51:16;;;;;;;35.33;4.30;;;8.50;99.90;;;;;;4804338;29;20050;-81
2022/01/03 06:53:42;;;;;;;30.80;5.13;;;8.60;99.90;;;;;;4804802;29;20571;-81
2022/01/03 06:56:08;;;;;;;36.15;5.00;;;8.50;99.90;;;;;;4805464;29;20054;-81
2022/01/03 06:58:34;;;;;;;30.85;5.20;;;8.50;99.90;;;;;;4803718;29;20057;-82
2022/01/03 07:01:00;;;;;;;34.45;5.38;;;8.50;99.90;;;;;;4805366;29;20050;-81
2022/01/03 07:03:25;;;;;;;32.40;5.55;;;8.50;99.90;;;;;;4804234;29;20144;-81
2022/01/03 07:05:51;;;;;;;33.13;5.15;;;8.50;99.90;;;;;;4805208;29;20134;-81
2022/01/03 07:08:19;;;;;;;36.70;6.15;;;8.40;99.90;;;;;;4774525;29;20058;-81
2022/01/03 07:10:45;;;;;;;29.13;4.35;;;8.40;99.90;;;;;;4804909;29;20410;-81
2022/01/03 07:13:10;;;;;;;34.92;5.60;;;8.40;99.90;;;;;;4805273;29;20054;-81
2022/01/03 07:21:05;;;;;;;34.35;4.60;;;8.40;99.90;;;;;;4804941;29;20504;-82
2022/01/03 07:23:30;;;;;;;37.83;5.78;;;8.40;99.90;;;;;;4805168;29;20047;-81
2022/01/03 07:25:56;;;;;;;30.67;5.05;;;8.50;99.90;;;;;;4804843;29;20050;-82
2022/01/03 07:28:22;;;;;;;36.50;6.10;;;8.40;99.90;;;;;;4805172;29;20058;-81
2022/01/03 07:30:47;;;;;;;34.55;4.90;;;8.50;99.90;;;;;;4804688;29;20047;-82
2022/01/03 07:33:13;;;;;;;38.03;6.22;;;8.40;99.90;;;;;;4805137;29;20055;-81
2022/01/03 07:35:39;;;;;;;37.05;5.35;;;8.50;99.90;;;;;;4806873;29;20101;-81
2022/01/03 07:38:04;;;;;;;39.10;5.45;;;8.50;99.90;;;;;;4808071;29;20072;-81
2022/01/03 07:40:30;;;;;;;32.58;5.15;;;8.60;99.90;;;;;;4807262;29;20047;-81
2022/01/03 07:42:57;;;;;;;33.25;4.88;;;8.60;99.90;;;;;;4807904;29;20383;-81
2022/01/03 07:45:22;;;;;;;33.88;5.68;;;8.60;99.90;;;;;;4808292;29;20047;-81
2022/01/03 07:47:48;;;;;;;35.20;5.00;;;8.60;99.90;;;;;;4807770;29;20170;-81
2022/01/03 07:50:14;;;;;;;35.25;5.30;;;8.60;99.90;;;;;;4806868;29;20051;-81
2022/01/03 07:52:40;;;;;;;36.60;5.45;;;8.60;99.90;;;;;;4792264;29;20133;-81
2022/01/03 07:55:06;;;;;;;33.88;5.32;;;8.60;99.90;;;;;;4806646;29;20456;-81
2022/01/03 07:57:32;;;;;;;36.58;5.90;;;8.70;99.90;;;;;;4808003;29;20074;-81
2022/01/03 07:59:58;;;;;;;33.97;5.68;;;8.70;99.90;;;;;;4807658;29;20047;-81
2022/01/03 08:02:23;;;;;;;39.42;6.20;;;8.80;99.90;;;;;;4806914;29;20086;-81
2022/01/03 08:04:49;;;;;;;37.35;5.88;;;8.90;99.90;;;;;;4807605;29;20050;-81
2022/01/03 08:07:15;;;;;;;30.10;5.28;;;8.90;99.90;;;;;;4807974;29;20107;-80
2022/01/03 08:09:40;;;;;;;32.60;5.25;;;9.00;99.90;;;;;;4806713;29;20108;-80
2022/01/03 08:12:07;;;;;;;38.15;5.35;;;9.00;99.90;;;;;;4791210;29;20054;-80
2022/01/03 08:14:33;;;;;;;28.88;4.70;;;9.00;99.90;;;;;;4807797;29;20065;-81
2022/01/03 08:16:59;;;;;;;33.45;4.95;;;9.00;99.90;;;;;;4807336;29;20051;-80
2022/01/03 08:19:24;;;;;;;29.20;4.60;;;9.10;99.90;;;;;;4806510;29;20050;-80
2022/01/03 08:21:50;;;;;;;31.52;5.57;;;9.00;99.90;;;;;;4807342;29;20134;-80
2022/01/03 08:24:17;;;;;;;37.85;5.63;;;9.00;99.90;;;;;;4807723;29;20050;-80
2022/01/03 08:26:42;;;;;;;39.92;5.10;;;9.00;99.90;;;;;;4807690;29;20061;-80
2022/01/03 08:29:09;;;;;;;28.33;5.05;;;9.10;99.90;;;;;;4807141;29;20046;-80
2022/01/03 08:31:36;;;;;;;34.08;4.80;;;9.10;99.90;;;;;;4807229;29;20059;-80
2022/01/03 08:34:03;;;;;;;31.45;4.75;;;9.20;99.90;;;;;;4807151;29;20438;-80
2022/01/03 08:36:29;;;;;;;27.88;5.22;;;9.20;99.90;;;;;;4806370;29;20158;-80
2022/01/03 08:38:54;;;;;;;34.28;5.30;;;9.20;99.90;;;;;;4806990;29;20125;-81
2022/01/03 08:41:20;;;;;;;30.98;4.78;;;9.20;99.90;;;;;;4807373;29;20097;-80
2022/01/03 08:43:46;;;;;;;27.38;4.57;;;9.20;99.90;;;;;;4807324;29;20050;-80
2022/01/03 08:46:11;;;;;;;35.90;5.15;;;9.30;99.90;;;;;;4790000;29;20087;-79
2022/01/03 08:48:37;;;;;;;29.55;5.05;;;9.30;99.90;;;;;;4791253;29;20066;-80
2022/01/03 08:51:03;;;;;;;24.95;4.88;;;9.30;99.90;;;;;;4806658;29;20055;-80
2022/01/03 08:53:28;;;;;;;29.77;5.10;;;9.40;99.90;;;;;;4806894;29;20134;-80
2022/01/03 08:55:55;;;;;;;33.13;4.90;;;9.40;99.90;;;;;;4806634;29;20051;-81
2022/01/03 08:58:21;;;;;;;35.08;5.93;;;9.40;99.90;;;;;;4805866;29;20126;-81
2022/01/03 09:00:47;;;;;;;28.80;4.95;;;9.40;99.90;;;;;;4806053;29;20135;-81
2022/01/03 09:03:12;;;;;;;30.35;4.47;;;9.50;99.90;;;;;;4790650;29;20129;-81
2022/01/03 09:05:38;;;;;;;69.32;7.50;;;9.50;99.90;;;;;;4806657;29;20058;-81
2022/01/03 09:08:04;;;;;;;27.50;4.65;;;9.50;99.90;;;;;;4806450;29;20059;-81
2022/01/03 09:10:30;;;;;;;29.77;4.72;;;9.60;99.90;;;;;;4805740;29;20087;-81
2022/01/03 09:12:55;;;;;;;23.02;4.00;;;9.60;99.90;;;;;;4805161;29;20430;-81
2022/01/03 09:15:21;;;;;;;30.63;4.60;;;9.60;99.90;;;;;;4805623;29;20054;-81
2022/01/03 09:17:48;;;;;;;33.08;5.50;;;9.70;99.90;;;;;;4806556;29;20058;-80
2022/01/03 09:20:14;;;;;;;25.92;4.15;;;9.70;99.90;;;;;;4806198;29;20496;-81
2022/01/03 09:22:44;;;;;;;52.42;6.35;;;9.70;99.90;;;;;;4790828;29;20486;-81
2022/01/03 09:30:33;;;;;;;30.08;4.72;;;9.80;99.90;;;;;;4805762;29;20520;-81
2022/01/03 09:32:58;;;;;;;30.95;4.82;;;9.80;99.90;;;;;;4806070;29;20133;-81
2022/01/03 09:35:24;;;;;;;32.75;5.50;;;9.90;99.90;;;;;;4806781;29;20173;-81
2022/01/03 09:37:50;;;;;;;33.50;5.15;;;9.80;99.90;;;;;;4805193;29;20046;-81
2022/01/03 09:40:15;;;;;;;32.25;4.95;;;9.90;99.90;;;;;;4805988;29;20046;-82
2022/01/03 09:42:42;;;;;;;28.85;4.10;;;9.90;99.90;;;;;;4805172;29;20069;-82
2022/01/03 09:45:11;;;;;;;27.70;5.57;;;9.90;99.90;;;;;;4804668;29;20076;-82
2022/01/03 09:47:41;;;;;;;30.27;4.80;;;9.90;99.90;;;;;;4804872;29;20068;-81
2022/01/03 09:50:07;;;;;;;;;;;9.90;99.90;;;;;;4806269;29;20058;-81
2022/01/03 09:52:33;;;;;;;27.88;4.60;;;9.90;99.90;;;;;;4805035;29;20332;-81
2022/01/03 09:54:59;;;;;;;33.60;4.82;;;10.00;99.90;;;;;;4804778;29;20115;-83
2022/01/03 09:57:25;;;;;;;34.88;4.90;;;10.00;99.90;;;;;;4804796;29;20108;-81
2022/01/03 09:59:51;;;;;;;29.48;4.70;;;10.00;99.90;;;;;;4804964;29;20043;-81
2022/01/03 10:02:17;;;;;;;24.90;4.47;;;10.00;99.90;;;;;;4804403;29;20402;-81
2022/01/03 10:04:43;;;;;;;29.25;4.68;;;10.10;99.90;;;;;;4804971;29;20125;-81
2022/01/03 10:07:10;;;;;;;23.90;4.38;;;10.10;99.90;;;;;;4789546;29;20051;-81
2022/01/03 10:09:36;;;;;;;25.25;4.35;;;10.10;99.90;;;;;;4805873;29;20123;-81
2022/01/03 10:12:01;;;;;;;31.48;4.85;;;10.10;99.90;;;;;;4804248;29;20141;-82
2022/01/03 10:14:27;;;;;;;29.27;4.95;;;10.10;99.90;;;;;;4804775;29;20138;-81
2022/01/03 10:16:53;;;;;;;24.05;4.53;;;10.00;99.90;;;;;;4805804;29;20062;-81
2022/01/03 10:19:18;;;;;;;29.70;4.88;;;10.00;99.90;;;;;;4804943;29;20046;-81
2022/01/03 10:21:46;;;;;;;29.75;4.13;;;10.00;99.90;;;;;;4805784;29;20076;-81
2022/01/03 10:24:13;;;;;;;26.95;4.75;;;10.00;99.90;;;;;;4789360;29;20082;-81
2022/01/03 10:26:39;;;;;;;27.38;4.53;;;10.00;99.90;;;;;;4805777;29;20051;-81
2022/01/03 10:29:15;;;;;;;28.10;4.32;;;10.00;99.90;;;;;;4804113;29;20058;-81
2022/01/03 10:31:41;;;;;;;28.83;5.00;;;10.00;99.90;;;;;;4804550;29;20393;-81
2022/01/03 10:34:09;;;;;;;33.05;5.00;;;9.90;99.90;;;;;;4804112;29;20375;-81
2022/01/03 10:36:35;;;;;;;28.33;4.65;;;9.90;99.90;;;;;;4804512;29;20410;-81
2022/01/03 10:39:30;;;;;;;29.60;4.70;;;9.90;99.90;;;;;;4805623;29;20054;-81
2022/01/03 10:42:19;;;;;;;33.35;5.72;;;9.90;99.90;;;;;;4804544;29;20138;-81
2022/01/03 10:44:45;;;;;;;33.72;4.97;;;9.90;99.90;;;;;;4805549;29;20088;-81
2022/01/03 10:47:16;;;;;;;31.60;4.60;;;10.00;99.90;;;;;;4803760;29;20528;-81
2022/01/03 10:49:43;;;;;;;29.90;5.07;;;10.00;99.90;;;;;;4804536;29;20394;-81
2022/01/03 10:52:22;;;;;;;30.38;4.60;;;10.00;99.90;;;;;;4805029;29;20093;-82
2022/01/03 10:55:07;;;;;;;26.45;4.78;;;10.10;99.90;;;;;;4805621;29;20059;-81
2022/01/03 10:58:02;;;;;;;27.77;4.60;;;10.30;99.90;;;;;;4805294;29;20057;-81
2022/01/03 11:00:33;;;;;;;30.65;4.65;;;10.30;99.90;;;;;;4805008;29;20456;-81
2022/01/03 11:03:29;;;;;;;31.30;5.88;;;10.30;99.90;;;;;;4804438;29;20057;-80
2022/01/03 11:06:08;;;;;;;28.52;5.03;;;10.40;99.90;;;;;;4805420;29;20069;-81
2022/01/03 11:11:40;;;;;;;28.17;5.00;;;10.30;99.90;;;;;;4795254;29;20073;-81
2022/01/03 11:14:06;;;;;;;26.70;5.05;;;10.30;99.90;;;;;;4807789;29;20059;-81
2022/01/03 11:16:36;;;;;;;31.60;5.05;;;10.40;99.90;;;;;;4807285;29;20078;-81
2022/01/03 11:19:02;;;;;;;26.27;5.13;;;10.40;99.90;;;;;;4809043;29;20195;-80
2022/01/03 11:21:30;;;;;;;28.30;4.68;;;10.40;99.90;;;;;;4807136;29;20063;-80
2022/01/03 11:24:06;;;;;;;24.92;4.78;;;10.40;99.90;;;;;;4807467;29;20395;-80
2022/01/03 11:26:33;;;;;;;26.50;5.07;;;10.40;99.90;;;;;;4807302;29;20376;-80
2022/01/03 11:29:00;;;;;;;27.35;4.25;;;10.40;99.90;;;;;;4807523;29;20047;-80
2022/01/03 11:31:26;;;;;;;25.50;3.78;;;10.40;99.90;;;;;;4806988;29;20062;-81
2022/01/03 11:33:52;;;;;;;28.23;4.78;;;10.40;99.90;;;;;;4792412;29;20046;-80
2022/01/03 11:36:18;;;;;;;22.20;3.97;;;10.40;99.90;;;;;;4806701;29;20123;-81
2022/01/03 11:38:44;;;;;;;26.80;4.20;;;10.50;99.90;;;;;;4777444;29;20077;-80
2022/01/03 11:41:10;;;;;;;27.58;5.03;;;10.50;99.90;;;;;;4807345;29;20051;-80
2022/01/03 11:43:38;;;;;;;24.00;4.53;;;10.50;99.90;;;;;;4807837;29;20053;-80
2022/01/03 11:46:03;;;;;;;24.55;4.18;;;10.50;99.90;;;;;;4808312;29;20055;-80
2022/01/03 11:48:29;;;;;;;25.73;4.30;;;10.60;99.90;;;;;;4807952;29;20067;-80
2022/01/03 11:50:56;;;;;;;23.63;4.63;;;10.70;99.90;;;;;;4807120;29;20079;-80
2022/01/03 11:53:23;;;;;;;26.08;3.88;;;10.60;99.90;;;;;;4807813;29;20059;-80
2022/01/03 11:55:55;;;;;;;32.53;4.80;;;10.60;99.90;;;;;;4808195;29;20466;-81
2022/01/03 12:04:42;;;;;;;26.60;4.20;;;10.60;99.90;;;;;;4807259;29;20203;-80
2022/01/03 12:07:11;;;;;;;29.95;3.97;;;10.50;99.90;;;;;;4806842;29;20059;-80
2022/01/03 12:09:47;;;;;;;25.17;4.05;;;10.60;99.90;;;;;;4807583;29;20047;-80
2022/01/03 12:12:33;;;;;;;28.83;4.75;;;10.60;99.90;;;;;;4806903;29;20137;-81
2022/01/03 12:15:00;;;;;;;28.90;4.70;;;10.70;99.90;;;;;;4792133;29;20054;-80
2022/01/03 12:17:45;;;;;;;24.25;4.05;;;10.80;99.90;;;;;;4806199;29;20130;-81
2022/01/03 12:20:11;;;;;;;26.27;4.63;;;10.90;99.90;;;;;;4806714;29;20134;-80
2022/01/03 12:22:53;;;;;;;26.75;4.85;;;10.90;99.90;;;;;;4806173;29;20133;-81
2022/01/03 12:25:26;;;;;;;23.50;4.22;;;10.90;99.90;;;;;;4806604;29;20051;-81
2022/01/03 12:27:58;;;;;;;33.03;5.38;;;10.90;99.90;;;;;;4807681;29;20054;-81
2022/01/03 12:30:27;;;;;;;27.02;4.30;;;10.90;99.90;;;;;;4807102;29;20077;-81
2022/01/03 12:33:08;;;;;;;27.95;4.10;;;10.90;99.90;;;;;;4806460;29;20058;-80
2022/01/03 12:35:35;;;;;;;25.52;4.38;;;10.80;99.90;;;;;;4807110;29;20528;-80
2022/01/03 12:38:03;;;;;;;29.30;5.05;;;10.70;99.90;;;;;;4791356;29;20092;-81
2022/01/03 12:40:44;;;;;;;27.10;4.75;;;10.70;99.90;;;;;;4806974;29;20406;-80
2022/01/03 12:43:12;;;;;;;21.02;4.25;;;10.70;99.90;;;;;;4807509;29;20050;-80
2022/01/03 12:45:43;;;;;;;24.77;3.97;;;10.70;99.90;;;;;;4806848;29;20062;-81
2022/01/03 12:48:11;;;;;;;;;;;10.70;99.90;;;;;;4807672;29;20519;-81
2022/01/03 12:50:51;;;;;;;24.48;3.95;;;10.70;99.90;;;;;;4806875;29;19932;-80
2022/01/03 12:53:23;;;;;;;25.85;4.45;;;10.70;99.90;;;;;;4807227;29;20061;-81
2022/01/03 12:55:53;;;;;;;26.13;4.45;;;10.70;99.90;;;;;;4806830;29;20062;-80
2022/01/03 12:58:19;;;;;;;21.48;4.32;;;10.60;99.90;;;;;;4807066;29;20054;-80
2022/01/03 13:00:53;;;;;;;26.70;4.68;;;10.60;99.90;;;;;;4806607;29;20050;-80
2022/01/03 13:03:22;;;;;;;30.05;5.55;;;10.60;99.90;;;;;;4807164;29;20059;-81
2022/01/03 13:06:19;;;;;;;29.58;4.20;;;10.60;99.90;;;;;;4806724;29;20058;-80
2022/01/03 13:09:00;;;;;;;26.73;4.53;;;10.60;99.90;;;;;;4806521;29;20086;-81
2022/01/03 13:11:31;;;;;;;25.98;4.72;;;10.50;99.90;;;;;;4805779;29;20091;-80
2022/01/03 13:14:12;;;;;;;26.08;4.45;;;10.60;99.90;;;;;;4806973;29;20091;-80